PWSweather.com
Personal Weather Stations
Station Observations
IFIFE35
InverkeithingGB

InverkeithingGB

Lat: 56.0317028, Lon: -3.4039751999999908

Elevation: 233

Station Type: DAVIS VANTAGE VUE

Latest ConditionsUpdated 11:20:00 PM GMT Sunday, Dec 16, 2018
Currently Today's Max Today's Min Today's Average
Temperature 38.9°F3.8°C 43.5°F6.4°C -1.0°F-18.3°C 37.7°F3.2°C
Dew Point 37.0°F2.8°C 39.6°F4.2°C -3.5°F-19.7°C 35.2°F1.8°C
Winds Calm Calm 9.0 mph -14.5 kmh - - 1.2 mph 1.9 kmh
Wind Gusts 2.0 mph3.2 kmh 16.0 mph25.7 kmh - -
Humidity 93% 95% 86% 90%
Pressure 29.40 in995.6 mb 29.40 in995.6 mb 28.89 in978.3 mb -
Precipitation - 0.04 in1.0 mm - -
Hour Temp Dew Point Humidity Winds Wind Gusts Pressure Precip Precip Rate Daily Precip Total
11:20 PM 38.9°F3.8°C 37.0°F2.8°C 93% Calm Calm 2.0 mph3.2 kmh 29.40 in995.6 mb 0.00 in0.0 mm 0.00 in0.0 mm 0.04 in1.0 mm
11:15 PM 38.9°F3.8°C 37.0°F2.8°C 93% Calm Calm 2.0 mph3.2 kmh 29.40 in995.6 mb 0.00 in0.0 mm 0.00 in0.0 mm 0.04 in1.0 mm
11:10 PM 38.9°F3.8°C 37.0°F2.8°C 93% Calm Calm 2.0 mph3.2 kmh 29.40 in995.6 mb 0.00 in0.0 mm 0.00 in0.0 mm 0.04 in1.0 mm
11:05 PM 38.7°F3.7°C 36.9°F2.7°C 93% Calm Calm 2.0 mph3.2 kmh 29.40 in995.6 mb 0.00 in0.0 mm 0.00 in0.0 mm 0.04 in1.0 mm
11:00 PM 38.7°F3.7°C 37.4°F3.0°C 95% Calm Calm 2.0 mph3.2 kmh 29.39 in995.3 mb 0.00 in0.0 mm 0.00 in0.0 mm 0.04 in1.0 mm
10:55 PM 39.2°F4.0°C 37.3°F2.9°C 93% Calm Calm 2.0 mph3.2 kmh 29.39 in995.3 mb 0.00 in0.0 mm 0.00 in0.0 mm 0.04 in1.0 mm
10:50 PM 38.7°F3.7°C 36.9°F2.7°C 93% Calm Calm 2.0 mph3.2 kmh 29.39 in995.3 mb 0.00 in0.0 mm 0.00 in0.0 mm 0.04 in1.0 mm
10:45 PM 38.8°F3.8°C 36.9°F2.7°C 93% Calm Calm 2.0 mph3.2 kmh 29.39 in995.3 mb 0.00 in0.0 mm 0.00 in0.0 mm 0.04 in1.0 mm
10:40 PM 39.5°F4.2°C 37.6°F3.1°C 93% Calm Calm 2.0 mph3.2 kmh 29.39 in995.3 mb 0.00 in0.0 mm 0.00 in0.0 mm 0.04 in1.0 mm
10:35 PM 38.9°F3.8°C 36.8°F2.7°C 92% Calm Calm 2.0 mph3.2 kmh 29.39 in995.3 mb 0.00 in0.0 mm 0.00 in0.0 mm 0.04 in1.0 mm
10:30 PM 39.0°F3.9°C 36.9°F2.7°C 92% Calm Calm 2.0 mph3.2 kmh 29.39 in995.3 mb 0.00 in0.0 mm 0.00 in0.0 mm 0.04 in1.0 mm
10:25 PM 39.3°F4.1°C 37.2°F2.9°C 92% Calm Calm 2.0 mph3.2 kmh 29.39 in995.3 mb 0.00 in0.0 mm 0.00 in0.0 mm 0.04 in1.0 mm
10:20 PM 39.1°F3.9°C 37.0°F2.8°C 92% Calm Calm 2.0 mph3.2 kmh 29.39 in995.3 mb 0.00 in0.0 mm 0.00 in0.0 mm 0.04 in1.0 mm
10:15 PM 38.9°F3.8°C 36.8°F2.7°C 92% Calm Calm 2.0 mph3.2 kmh 29.39 in995.3 mb 0.00 in0.0 mm 0.00 in0.0 mm 0.04 in1.0 mm
10:10 PM 38.9°F3.8°C 36.8°F2.7°C 92% Calm Calm -- 29.39 in995.3 mb 0.00 in0.0 mm 0.00 in0.0 mm 0.04 in1.0 mm
10:05 PM 38.9°F3.8°C 36.8°F2.7°C 92% Calm Calm 2.0 mph3.2 kmh 29.39 in995.3 mb 0.00 in0.0 mm 0.00 in0.0 mm 0.04 in1.0 mm
10:00 PM 39.0°F3.9°C 36.9°F2.7°C 92% Calm Calm 2.0 mph3.2 kmh 29.39 in995.3 mb 0.00 in0.0 mm 0.00 in0.0 mm 0.04 in1.0 mm
09:55 PM 39.2°F4.0°C 36.8°F2.7°C 91% Calm Calm 2.0 mph3.2 kmh 29.39 in995.3 mb 0.00 in0.0 mm 0.00 in0.0 mm 0.04 in1.0 mm
09:50 PM 39.1°F3.9°C 36.7°F2.6°C 91% Calm Calm 2.0 mph3.2 kmh 29.39 in995.3 mb 0.00 in0.0 mm 0.00 in0.0 mm 0.04 in1.0 mm
09:45 PM 39.2°F4.0°C 36.8°F2.7°C 91% Calm Calm 2.0 mph3.2 kmh 29.39 in995.3 mb 0.00 in0.0 mm 0.00 in0.0 mm 0.04 in1.0 mm
09:40 PM 39.2°F4.0°C 36.8°F2.7°C 91% Calm Calm 2.0 mph3.2 kmh 29.39 in995.3 mb 0.00 in0.0 mm 0.00 in0.0 mm 0.04 in1.0 mm
09:35 PM 39.3°F4.1°C 36.9°F2.7°C 91% Calm Calm 2.0 mph3.2 kmh 29.39 in995.3 mb 0.00 in0.0 mm 0.00 in0.0 mm 0.04 in1.0 mm
09:30 PM 39.1°F3.9°C 36.7°F2.6°C 91% Calm Calm 2.0 mph3.2 kmh 29.39 in995.3 mb 0.00 in0.0 mm 0.00 in0.0 mm 0.04 in1.0 mm
09:25 PM 39.1°F3.9°C 36.4°F2.4°C 90% Calm Calm 2.0 mph3.2 kmh 29.39 in995.3 mb 0.00 in0.0 mm 0.00 in0.0 mm 0.04 in1.0 mm
09:20 PM 39.2°F4.0°C 36.5°F2.5°C 90% Calm Calm 2.0 mph3.2 kmh 29.39 in995.3 mb 0.00 in0.0 mm 0.00 in0.0 mm 0.04 in1.0 mm
09:15 PM 39.3°F4.1°C 36.6°F2.6°C 90% Calm Calm 2.0 mph3.2 kmh 29.38 in994.9 mb 0.00 in0.0 mm 0.00 in0.0 mm 0.04 in1.0 mm
09:10 PM 39.4°F4.1°C 36.7°F2.6°C 90% Calm Calm 2.0 mph3.2 kmh 29.38 in994.9 mb 0.00 in0.0 mm 0.00 in0.0 mm 0.04 in1.0 mm
09:05 PM 40.0°F4.4°C 37.3°F2.9°C 90% Calm Calm 2.0 mph3.2 kmh 29.38 in994.9 mb 0.00 in0.0 mm 0.00 in0.0 mm 0.04 in1.0 mm
09:00 PM 39.5°F4.2°C 36.5°F2.5°C 89% Calm Calm 2.0 mph3.2 kmh 29.38 in994.9 mb 0.00 in0.0 mm 0.00 in0.0 mm 0.04 in1.0 mm
08:55 PM 39.6°F4.2°C 36.6°F2.6°C 89% Calm Calm 2.0 mph3.2 kmh 29.38 in994.9 mb 0.00 in0.0 mm 0.00 in0.0 mm 0.04 in1.0 mm
08:50 PM 39.7°F4.3°C 36.7°F2.6°C 89% Calm Calm 2.0 mph3.2 kmh 29.38 in994.9 mb 0.00 in0.0 mm 0.00 in0.0 mm 0.04 in1.0 mm
08:45 PM 39.8°F4.3°C 36.8°F2.7°C 89% Calm Calm -- 29.37 in994.6 mb 0.00 in0.0 mm 0.00 in0.0 mm 0.04 in1.0 mm
08:40 PM 40.5°F4.7°C 37.5°F3.1°C 89% Calm Calm 2.0 mph3.2 kmh 29.37 in994.6 mb 0.00 in0.0 mm 0.00 in0.0 mm 0.04 in1.0 mm
08:35 PM 39.9°F4.4°C 36.9°F2.7°C 89% Calm Calm 2.0 mph3.2 kmh 29.37 in994.6 mb 0.00 in0.0 mm 0.00 in0.0 mm 0.04 in1.0 mm
08:30 PM 40.0°F4.4°C 37.0°F2.8°C 89% Calm Calm 2.0 mph3.2 kmh 29.37 in994.6 mb 0.00 in0.0 mm 0.00 in0.0 mm 0.04 in1.0 mm
08:25 PM 39.9°F4.4°C 36.9°F2.7°C 89% Calm Calm 2.0 mph3.2 kmh 29.37 in994.6 mb 0.00 in0.0 mm 0.00 in0.0 mm 0.04 in1.0 mm
08:20 PM 39.9°F4.4°C 37.5°F3.1°C 91% Calm Calm 2.0 mph3.2 kmh 29.37 in994.6 mb 0.00 in0.0 mm 0.00 in0.0 mm 0.04 in1.0 mm
08:15 PM 39.9°F4.4°C 36.9°F2.7°C 89% Calm Calm 2.0 mph3.2 kmh 29.37 in994.6 mb 0.00 in0.0 mm 0.00 in0.0 mm 0.04 in1.0 mm
08:10 PM 39.8°F4.3°C 36.8°F2.7°C 89% Calm Calm 2.0 mph3.2 kmh 29.36 in994.2 mb 0.00 in0.0 mm 0.00 in0.0 mm 0.04 in1.0 mm
08:05 PM 39.9°F4.4°C 36.9°F2.7°C 89% Calm Calm 2.0 mph3.2 kmh 29.36 in994.2 mb 0.00 in0.0 mm 0.00 in0.0 mm 0.04 in1.0 mm
08:00 PM 39.9°F4.4°C 36.9°F2.7°C 89% Calm Calm 2.0 mph3.2 kmh 29.36 in994.2 mb 0.00 in0.0 mm 0.00 in0.0 mm 0.04 in1.0 mm
07:55 PM 39.7°F4.3°C 37.3°F2.9°C 91% Calm Calm 2.0 mph3.2 kmh 29.36 in994.2 mb 0.00 in0.0 mm 0.00 in0.0 mm 0.04 in1.0 mm
07:50 PM 39.8°F4.3°C 36.8°F2.7°C 89% Calm Calm 2.0 mph3.2 kmh 29.36 in994.2 mb 0.00 in0.0 mm 0.00 in0.0 mm 0.04 in1.0 mm
07:45 PM 39.7°F4.3°C 36.7°F2.6°C 89% Calm Calm 2.0 mph3.2 kmh 29.36 in994.2 mb 0.00 in0.0 mm 0.00 in0.0 mm 0.04 in1.0 mm
07:40 PM 39.7°F4.3°C 36.7°F2.6°C 89% Calm Calm 2.0 mph3.2 kmh 29.36 in994.2 mb 0.00 in0.0 mm 0.00 in0.0 mm 0.04 in1.0 mm
07:35 PM 39.5°F4.2°C 36.5°F2.5°C 89% Calm Calm 2.0 mph3.2 kmh 29.35 in993.9 mb 0.00 in0.0 mm 0.00 in0.0 mm 0.04 in1.0 mm
07:30 PM 40.0°F4.4°C 37.0°F2.8°C 89% Calm Calm 2.0 mph3.2 kmh 29.35 in993.9 mb 0.00 in0.0 mm 0.00 in0.0 mm 0.04 in1.0 mm
07:25 PM 39.3°F4.1°C 36.3°F2.4°C 89% Calm Calm 2.0 mph3.2 kmh 29.35 in993.9 mb 0.00 in0.0 mm 0.00 in0.0 mm 0.04 in1.0 mm
07:20 PM 39.6°F4.2°C 36.6°F2.6°C 89% Calm Calm 2.0 mph3.2 kmh 29.35 in993.9 mb 0.00 in0.0 mm 0.00 in0.0 mm 0.04 in1.0 mm
07:15 PM 39.3°F4.1°C 36.3°F2.4°C 89% Calm Calm 2.0 mph3.2 kmh 29.35 in993.9 mb 0.00 in0.0 mm 0.00 in0.0 mm 0.04 in1.0 mm
07:10 PM 39.7°F4.3°C 36.7°F2.6°C 89% Calm Calm 1.0 mph1.6 kmh 29.35 in993.9 mb 0.00 in0.0 mm 0.00 in0.0 mm 0.04 in1.0 mm
07:05 PM 39.4°F4.1°C 36.7°F2.6°C 90% Calm Calm 2.0 mph3.2 kmh 29.34 in993.6 mb 0.00 in0.0 mm 0.00 in0.0 mm 0.04 in1.0 mm
07:00 PM 39.7°F4.3°C 37.0°F2.8°C 90% Calm Calm 2.0 mph3.2 kmh 29.34 in993.6 mb 0.00 in0.0 mm 0.00 in0.0 mm 0.04 in1.0 mm
06:55 PM 38.7°F3.7°C 36.0°F2.2°C 90% Calm Calm 1.0 mph1.6 kmh 29.34 in993.6 mb 0.00 in0.0 mm 0.00 in0.0 mm 0.04 in1.0 mm
06:50 PM 38.6°F3.7°C 35.9°F2.2°C 90% Calm Calm 1.0 mph1.6 kmh 29.34 in993.6 mb 0.00 in0.0 mm 0.00 in0.0 mm 0.04 in1.0 mm
06:45 PM 38.7°F3.7°C 36.6°F2.6°C 92% Calm Calm 1.0 mph1.6 kmh 29.34 in993.6 mb 0.00 in0.0 mm 0.00 in0.0 mm 0.04 in1.0 mm
06:40 PM 38.6°F3.7°C 35.9°F2.2°C 90% Calm Calm 1.0 mph1.6 kmh 29.33 in993.2 mb 0.00 in0.0 mm 0.00 in0.0 mm 0.04 in1.0 mm
06:35 PM 38.5°F3.6°C 36.1°F2.3°C 91% Calm Calm 1.0 mph1.6 kmh 29.34 in993.6 mb 0.00 in0.0 mm 0.00 in0.0 mm 0.04 in1.0 mm
06:30 PM 38.7°F3.7°C 35.7°F2.1°C 89% Calm Calm 1.0 mph1.6 kmh 29.33 in993.2 mb 0.00 in0.0 mm 0.00 in0.0 mm 0.04 in1.0 mm
06:25 PM 38.7°F3.7°C 35.7°F2.1°C 89% Calm Calm 1.0 mph1.6 kmh 29.34 in993.6 mb 0.00 in0.0 mm 0.00 in0.0 mm 0.04 in1.0 mm
06:20 PM 38.8°F3.8°C 35.8°F2.1°C 89% Calm Calm 1.0 mph1.6 kmh 29.33 in993.2 mb 0.00 in0.0 mm 0.00 in0.0 mm 0.04 in1.0 mm
06:15 PM 39.0°F3.9°C 36.0°F2.2°C 89% Calm Calm -- 29.33 in993.2 mb 0.00 in0.0 mm 0.00 in0.0 mm 0.04 in1.0 mm
06:10 PM 38.9°F3.8°C 36.2°F2.3°C 90% Calm Calm -- 29.33 in993.2 mb 0.00 in0.0 mm 0.00 in0.0 mm 0.04 in1.0 mm
06:05 PM 38.8°F3.8°C 36.1°F2.3°C 90% Calm Calm -- 29.33 in993.2 mb 0.00 in0.0 mm 0.00 in0.0 mm 0.04 in1.0 mm
06:00 PM 38.6°F3.7°C 35.9°F2.2°C 90% Calm Calm -- 29.33 in993.2 mb 0.00 in0.0 mm 0.00 in0.0 mm 0.04 in1.0 mm
05:55 PM 38.6°F3.7°C 35.9°F2.2°C 90% Calm Calm -- 29.33 in993.2 mb 0.00 in0.0 mm 0.00 in0.0 mm 0.04 in1.0 mm
05:50 PM 39.0°F3.9°C 36.3°F2.4°C 90% Calm Calm -- 29.33 in993.2 mb 0.00 in0.0 mm 0.00 in0.0 mm 0.04 in1.0 mm
05:45 PM 40.2°F4.6°C 37.5°F3.1°C 90% Calm Calm 1.0 mph1.6 kmh 29.33 in993.2 mb 0.00 in0.0 mm 0.00 in0.0 mm 0.04 in1.0 mm
05:40 PM 40.3°F4.6°C 37.6°F3.1°C 90% Calm Calm 1.0 mph1.6 kmh 29.32 in992.9 mb 0.00 in0.0 mm 0.00 in0.0 mm 0.04 in1.0 mm
05:35 PM 40.3°F4.6°C 37.6°F3.1°C 90% Calm Calm 2.0 mph3.2 kmh 29.32 in992.9 mb 0.00 in0.0 mm 0.00 in0.0 mm 0.04 in1.0 mm
05:30 PM 40.1°F4.5°C 37.4°F3.0°C 90% Calm Calm 2.0 mph3.2 kmh 29.32 in992.9 mb 0.00 in0.0 mm 0.00 in0.0 mm 0.04 in1.0 mm
05:25 PM 40.1°F4.5°C 37.4°F3.0°C 90% Calm Calm 1.0 mph1.6 kmh 29.32 in992.9 mb 0.00 in0.0 mm 0.00 in0.0 mm 0.04 in1.0 mm
05:20 PM 40.1°F4.5°C 37.4°F3.0°C 90% Calm Calm 1.0 mph1.6 kmh 29.32 in992.9 mb 0.00 in0.0 mm 0.00 in0.0 mm 0.04 in1.0 mm
05:15 PM 40.2°F4.6°C 37.5°F3.1°C 90% Calm Calm 1.0 mph1.6 kmh 29.32 in992.9 mb 0.00 in0.0 mm 0.00 in0.0 mm 0.04 in1.0 mm
05:10 PM 40.3°F4.6°C 37.6°F3.1°C 90% Calm Calm 1.0 mph1.6 kmh 29.32 in992.9 mb 0.00 in0.0 mm 0.00 in0.0 mm 0.04 in1.0 mm
05:05 PM 40.2°F4.6°C 37.5°F3.1°C 90% Calm Calm -- 29.31 in992.6 mb 0.00 in0.0 mm 0.00 in0.0 mm 0.04 in1.0 mm
05:00 PM 40.3°F4.6°C 37.6°F3.1°C 90% Calm Calm -- 29.31 in992.6 mb 0.00 in0.0 mm 0.00 in0.0 mm 0.04 in1.0 mm
04:55 PM 40.2°F4.6°C 37.5°F3.1°C 90% Calm Calm -- 29.31 in992.6 mb 0.00 in0.0 mm 0.00 in0.0 mm 0.04 in1.0 mm
04:50 PM 40.3°F4.6°C 37.6°F3.1°C 90% Calm Calm 1.0 mph1.6 kmh 29.31 in992.6 mb 0.00 in0.0 mm 0.00 in0.0 mm 0.04 in1.0 mm
04:45 PM 40.4°F4.7°C 37.7°F3.2°C 90% Calm Calm 1.0 mph1.6 kmh 29.31 in992.6 mb 0.00 in0.0 mm 0.00 in0.0 mm 0.04 in1.0 mm
04:40 PM 40.3°F4.6°C 37.6°F3.1°C 90% Calm Calm 2.0 mph3.2 kmh 29.31 in992.6 mb 0.00 in0.0 mm 0.00 in0.0 mm 0.04 in1.0 mm
04:35 PM 40.4°F4.7°C 37.7°F3.2°C 90% Calm Calm 2.0 mph3.2 kmh 29.31 in992.6 mb 0.00 in0.0 mm 0.00 in0.0 mm 0.04 in1.0 mm
04:30 PM 40.4°F4.7°C 37.4°F3.0°C 89% Calm Calm 2.0 mph3.2 kmh 29.30 in992.2 mb 0.00 in0.0 mm 0.00 in0.0 mm 0.04 in1.0 mm
04:25 PM 40.6°F4.8°C 37.6°F3.1°C 89% Calm Calm 2.0 mph3.2 kmh 29.30 in992.2 mb 0.00 in0.0 mm 0.00 in0.0 mm 0.04 in1.0 mm
04:20 PM 40.7°F4.8°C 37.7°F3.2°C 89% Calm Calm 1.0 mph1.6 kmh 29.30 in992.2 mb 0.00 in0.0 mm 0.00 in0.0 mm 0.04 in1.0 mm
04:15 PM 40.8°F4.9°C 37.8°F3.2°C 89% Calm Calm 1.0 mph1.6 kmh 29.30 in992.2 mb 0.00 in0.0 mm 0.00 in0.0 mm 0.04 in1.0 mm
04:10 PM 40.9°F4.9°C 37.9°F3.3°C 89% Calm Calm 1.0 mph1.6 kmh 29.30 in992.2 mb 0.00 in0.0 mm 0.00 in0.0 mm 0.04 in1.0 mm
04:05 PM 41.0°F5.0°C 38.0°F3.3°C 89% Calm Calm 1.0 mph1.6 kmh 29.30 in992.2 mb 0.00 in0.0 mm 0.00 in0.0 mm 0.04 in1.0 mm
04:00 PM 41.1°F5.1°C 38.1°F3.4°C 89% Calm Calm -- 29.30 in992.2 mb 0.00 in0.0 mm 0.00 in0.0 mm 0.04 in1.0 mm
03:55 PM 41.3°F5.2°C 38.3°F3.5°C 89% Calm Calm 1.0 mph1.6 kmh 29.29 in991.9 mb 0.00 in0.0 mm 0.00 in0.0 mm 0.04 in1.0 mm
03:50 PM 41.3°F5.2°C 38.3°F3.5°C 89% Calm Calm 1.0 mph1.6 kmh 29.29 in991.9 mb 0.00 in0.0 mm 0.00 in0.0 mm 0.04 in1.0 mm
03:45 PM 41.2°F5.1°C 38.2°F3.4°C 89% Calm Calm 1.0 mph1.6 kmh 29.29 in991.9 mb 0.00 in0.0 mm 0.00 in0.0 mm 0.04 in1.0 mm
03:40 PM 41.2°F5.1°C 38.2°F3.4°C 89% Calm Calm 1.0 mph1.6 kmh 29.29 in991.9 mb 0.00 in0.0 mm 0.00 in0.0 mm 0.04 in1.0 mm
03:35 PM 41.1°F5.1°C 38.1°F3.4°C 89% Calm Calm 1.0 mph1.6 kmh 29.29 in991.9 mb 0.00 in0.0 mm 0.00 in0.0 mm 0.04 in1.0 mm
03:30 PM 41.0°F5.0°C 38.0°F3.3°C 89% Calm Calm 1.0 mph1.6 kmh 29.29 in991.9 mb 0.00 in0.0 mm 0.00 in0.0 mm 0.04 in1.0 mm
03:25 PM 40.9°F4.9°C 37.9°F3.3°C 89% Calm Calm -- 29.29 in991.9 mb 0.00 in0.0 mm 0.00 in0.0 mm 0.04 in1.0 mm
03:20 PM 40.8°F4.9°C 37.5°F3.1°C 88% Calm Calm -- 29.28 in991.5 mb 0.00 in0.0 mm 0.00 in0.0 mm 0.04 in1.0 mm
03:15 PM 40.9°F4.9°C 37.3°F2.9°C 87% Calm Calm -- 29.28 in991.5 mb 0.00 in0.0 mm 0.00 in0.0 mm 0.04 in1.0 mm
03:10 PM 41.3°F5.2°C 37.7°F3.2°C 87% Calm Calm -- 29.28 in991.5 mb 0.00 in0.0 mm 0.00 in0.0 mm 0.04 in1.0 mm
03:05 PM 41.6°F5.3°C 38.0°F3.3°C 87% Calm Calm 2.0 mph3.2 kmh 29.27 in991.2 mb 0.00 in0.0 mm 0.00 in0.0 mm 0.04 in1.0 mm
03:00 PM 41.7°F5.4°C 38.1°F3.4°C 87% Calm Calm 2.0 mph3.2 kmh 29.27 in991.2 mb 0.00 in0.0 mm 0.00 in0.0 mm 0.04 in1.0 mm
02:55 PM 41.9°F5.5°C 38.3°F3.5°C 87% Calm Calm 1.0 mph1.6 kmh 29.27 in991.2 mb 0.00 in0.0 mm 0.00 in0.0 mm 0.04 in1.0 mm
02:50 PM 42.1°F5.6°C 38.5°F3.6°C 87% Calm Calm 2.0 mph3.2 kmh 29.27 in991.2 mb 0.00 in0.0 mm 0.00 in0.0 mm 0.04 in1.0 mm
02:45 PM 42.2°F5.7°C 38.3°F3.5°C 86% Calm Calm 2.0 mph3.2 kmh 29.26 in990.9 mb 0.00 in0.0 mm 0.00 in0.0 mm 0.04 in1.0 mm
02:40 PM 42.5°F5.8°C 38.6°F3.7°C 86% Calm Calm 3.0 mph4.8 kmh 29.26 in990.9 mb 0.00 in0.0 mm 0.00 in0.0 mm 0.04 in1.0 mm
02:35 PM 42.6°F5.9°C 38.7°F3.7°C 86% 1.0 mph SSW1.6 kmh SSW 3.0 mph4.8 kmh 29.26 in990.9 mb 0.00 in0.0 mm 0.00 in0.0 mm 0.04 in1.0 mm
02:30 PM 42.7°F5.9°C 38.8°F3.8°C 86% Calm Calm 3.0 mph4.8 kmh 29.26 in990.9 mb 0.00 in0.0 mm 0.00 in0.0 mm 0.04 in1.0 mm
02:25 PM 42.8°F6.0°C 38.9°F3.8°C 86% 1.0 mph SW1.6 kmh SW 7.0 mph11.3 kmh 29.26 in990.9 mb 0.00 in0.0 mm 0.00 in0.0 mm 0.04 in1.0 mm
02:20 PM 42.9°F6.1°C 39.0°F3.9°C 86% 1.0 mph SSW1.6 kmh SSW 7.0 mph11.3 kmh 29.26 in990.9 mb 0.00 in0.0 mm 0.00 in0.0 mm 0.04 in1.0 mm
02:15 PM 43.0°F6.1°C 39.1°F3.9°C 86% 1.0 mph SSW1.6 kmh SSW 7.0 mph11.3 kmh 29.26 in990.9 mb 0.00 in0.0 mm 0.00 in0.0 mm 0.04 in1.0 mm
02:10 PM 43.1°F6.2°C 39.2°F4.0°C 86% 2.0 mph SSW3.2 kmh SSW 8.0 mph12.9 kmh 29.26 in990.9 mb 0.00 in0.0 mm 0.00 in0.0 mm 0.04 in1.0 mm
02:05 PM 43.1°F6.2°C 39.2°F4.0°C 86% 2.0 mph SSW3.2 kmh SSW 8.0 mph12.9 kmh 29.26 in990.9 mb 0.00 in0.0 mm 0.00 in0.0 mm 0.04 in1.0 mm
02:00 PM 43.1°F6.2°C 39.2°F4.0°C 86% 2.0 mph SSW3.2 kmh SSW 6.0 mph9.7 kmh 29.25 in990.5 mb 0.00 in0.0 mm 0.00 in0.0 mm 0.04 in1.0 mm
01:55 PM 43.2°F6.2°C 39.3°F4.1°C 86% 2.0 mph S3.2 kmh S 5.0 mph8.0 kmh 29.26 in990.9 mb 0.00 in0.0 mm 0.00 in0.0 mm 0.04 in1.0 mm
01:50 PM 43.3°F6.3°C 39.4°F4.1°C 86% 1.0 mph S1.6 kmh S 5.0 mph8.0 kmh 29.26 in990.9 mb 0.00 in0.0 mm 0.00 in0.0 mm 0.04 in1.0 mm
01:45 PM 43.4°F6.3°C 39.5°F4.2°C 86% 1.0 mph SSW1.6 kmh SSW 5.0 mph8.0 kmh 29.26 in990.9 mb 0.00 in0.0 mm 0.00 in0.0 mm 0.04 in1.0 mm
01:40 PM 43.4°F6.3°C 39.5°F4.2°C 86% 1.0 mph SSW1.6 kmh SSW 5.0 mph8.0 kmh 29.25 in990.5 mb 0.00 in0.0 mm 0.00 in0.0 mm 0.04 in1.0 mm
01:35 PM 43.5°F6.4°C 39.6°F4.2°C 86% 1.0 mph SSW1.6 kmh SSW 6.0 mph9.7 kmh 29.25 in990.5 mb 0.00 in0.0 mm 0.00 in0.0 mm 0.04 in1.0 mm
01:30 PM 43.4°F6.3°C 39.5°F4.2°C 86% 1.0 mph SSW1.6 kmh SSW 6.0 mph9.7 kmh 29.25 in990.5 mb 0.00 in0.0 mm 0.00 in0.0 mm 0.04 in1.0 mm
01:25 PM 43.2°F6.2°C 39.3°F4.1°C 86% 1.0 mph SSW1.6 kmh SSW 4.0 mph6.4 kmh 29.25 in990.5 mb 0.00 in0.0 mm 0.00 in0.0 mm 0.04 in1.0 mm
01:20 PM 43.1°F6.2°C 39.2°F4.0°C 86% 1.0 mph SSW1.6 kmh SSW 3.0 mph4.8 kmh 29.25 in990.5 mb 0.00 in0.0 mm 0.00 in0.0 mm 0.04 in1.0 mm
01:15 PM 43.2°F6.2°C 39.3°F4.1°C 86% 2.0 mph S3.2 kmh S 6.0 mph9.7 kmh 29.25 in990.5 mb 0.00 in0.0 mm 0.00 in0.0 mm 0.04 in1.0 mm
01:10 PM 43.1°F6.2°C 39.2°F4.0°C 86% 2.0 mph S3.2 kmh S 6.0 mph9.7 kmh 29.25 in990.5 mb 0.00 in0.0 mm 0.00 in0.0 mm 0.04 in1.0 mm
01:05 PM 42.9°F6.1°C 39.0°F3.9°C 86% 2.0 mph S3.2 kmh S 6.0 mph9.7 kmh 29.25 in990.5 mb 0.00 in0.0 mm 0.00 in0.0 mm 0.04 in1.0 mm
01:00 PM 42.7°F5.9°C 39.1°F3.9°C 87% 1.0 mph SSW1.6 kmh SSW 7.0 mph11.3 kmh 29.25 in990.5 mb 0.00 in0.0 mm 0.00 in0.0 mm 0.04 in1.0 mm
12:55 PM 42.5°F5.8°C 38.9°F3.8°C 87% 1.0 mph SSW1.6 kmh SSW 7.0 mph11.3 kmh 29.25 in990.5 mb 0.00 in0.0 mm 0.00 in0.0 mm 0.04 in1.0 mm
12:50 PM 42.4°F5.8°C 38.8°F3.8°C 87% 2.0 mph S3.2 kmh S 6.0 mph9.7 kmh 29.25 in990.5 mb 0.00 in0.0 mm 0.00 in0.0 mm 0.04 in1.0 mm
12:45 PM 42.3°F5.7°C 38.7°F3.7°C 87% 1.0 mph S1.6 kmh S 6.0 mph9.7 kmh 29.25 in990.5 mb 0.00 in0.0 mm 0.00 in0.0 mm 0.04 in1.0 mm
12:40 PM 42.3°F5.7°C 38.7°F3.7°C 87% Calm Calm 3.0 mph4.8 kmh 29.25 in990.5 mb 0.00 in0.0 mm 0.00 in0.0 mm 0.04 in1.0 mm
12:35 PM 42.3°F5.7°C 38.7°F3.7°C 87% Calm Calm 3.0 mph4.8 kmh 29.25 in990.5 mb 0.00 in0.0 mm 0.00 in0.0 mm 0.04 in1.0 mm
12:30 PM 42.3°F5.7°C 38.7°F3.7°C 87% 1.0 mph S1.6 kmh S 4.0 mph6.4 kmh 29.25 in990.5 mb 0.00 in0.0 mm 0.00 in0.0 mm 0.04 in1.0 mm
12:25 PM 42.3°F5.7°C 38.7°F3.7°C 87% 1.0 mph SSW1.6 kmh SSW 4.0 mph6.4 kmh 29.25 in990.5 mb 0.00 in0.0 mm 0.00 in0.0 mm 0.04 in1.0 mm
12:20 PM 42.3°F5.7°C 38.7°F3.7°C 87% 1.0 mph S1.6 kmh S 4.0 mph6.4 kmh 29.25 in990.5 mb 0.00 in0.0 mm 0.00 in0.0 mm 0.04 in1.0 mm
12:15 PM 42.2°F5.7°C 38.6°F3.7°C 87% 1.0 mph S1.6 kmh S 5.0 mph8.0 kmh 29.25 in990.5 mb 0.00 in0.0 mm 0.00 in0.0 mm 0.04 in1.0 mm
12:10 PM 42.2°F5.7°C 38.6°F3.7°C 87% 2.0 mph S3.2 kmh S 5.0 mph8.0 kmh 29.24 in990.2 mb 0.00 in0.0 mm 0.00 in0.0 mm 0.04 in1.0 mm
12:05 PM 42.1°F5.6°C 38.5°F3.6°C 87% 2.0 mph S3.2 kmh S 7.0 mph11.3 kmh 29.24 in990.2 mb 0.00 in0.0 mm 0.00 in0.0 mm 0.04 in1.0 mm
12:00 PM 41.9°F5.5°C 38.3°F3.5°C 87% 2.0 mph S3.2 kmh S 7.0 mph11.3 kmh 29.24 in990.2 mb 0.00 in0.0 mm 0.00 in0.0 mm 0.04 in1.0 mm
11:55 AM 41.8°F5.4°C 38.2°F3.4°C 87% 2.0 mph S3.2 kmh S 8.0 mph12.9 kmh 29.24 in990.2 mb 0.00 in0.0 mm 0.00 in0.0 mm 0.04 in1.0 mm
11:50 AM 41.7°F5.4°C 38.1°F3.4°C 87% 2.0 mph S3.2 kmh S 8.0 mph12.9 kmh 29.24 in990.2 mb 0.00 in0.0 mm 0.00 in0.0 mm 0.04 in1.0 mm
11:45 AM 41.6°F5.3°C 38.0°F3.3°C 87% 2.0 mph S3.2 kmh S 6.0 mph9.7 kmh 29.24 in990.2 mb 0.00 in0.0 mm 0.00 in0.0 mm 0.04 in1.0 mm
11:40 AM 41.6°F5.3°C 38.0°F3.3°C 87% 3.0 mph S4.8 kmh S 8.0 mph12.9 kmh 29.24 in990.2 mb 0.00 in0.0 mm 0.00 in0.0 mm 0.04 in1.0 mm
11:35 AM 41.6°F5.3°C 38.3°F3.5°C 88% 3.0 mph S4.8 kmh S 10.0 mph16.1 kmh 29.24 in990.2 mb 0.00 in0.0 mm 0.00 in0.0 mm 0.04 in1.0 mm
11:30 AM 41.5°F5.3°C 38.2°F3.4°C 88% 3.0 mph S4.8 kmh S 11.0 mph17.7 kmh 29.24 in990.2 mb 0.00 in0.0 mm 0.00 in0.0 mm 0.04 in1.0 mm
11:25 AM 41.5°F5.3°C 38.2°F3.4°C 88% 2.0 mph S3.2 kmh S 11.0 mph17.7 kmh 29.24 in990.2 mb 0.00 in0.0 mm 0.00 in0.0 mm 0.04 in1.0 mm
11:20 AM 41.4°F5.2°C 38.1°F3.4°C 88% 3.0 mph S4.8 kmh S 9.0 mph14.5 kmh 29.24 in990.2 mb 0.00 in0.0 mm 0.00 in0.0 mm 0.04 in1.0 mm
11:15 AM 41.3°F5.2°C 38.0°F3.3°C 88% 3.0 mph S4.8 kmh S 9.0 mph14.5 kmh 29.24 in990.2 mb 0.00 in0.0 mm 0.00 in0.0 mm 0.04 in1.0 mm
11:10 AM 41.2°F5.1°C 37.9°F3.3°C 88% 2.0 mph SSW3.2 kmh SSW 9.0 mph14.5 kmh 29.24 in990.2 mb 0.00 in0.0 mm 0.00 in0.0 mm 0.04 in1.0 mm
11:05 AM 41.2°F5.1°C 37.9°F3.3°C 88% 2.0 mph S3.2 kmh S 8.0 mph12.9 kmh 29.24 in990.2 mb 0.00 in0.0 mm 0.00 in0.0 mm 0.04 in1.0 mm
11:00 AM 41.2°F5.1°C 38.2°F3.4°C 89% 2.0 mph S3.2 kmh S 7.0 mph11.3 kmh 29.24 in990.2 mb 0.00 in0.0 mm 0.00 in0.0 mm 0.04 in1.0 mm
10:55 AM 41.1°F5.1°C 38.1°F3.4°C 89% 2.0 mph S3.2 kmh S 7.0 mph11.3 kmh 29.24 in990.2 mb 0.00 in0.0 mm 0.00 in0.0 mm 0.04 in1.0 mm
10:50 AM 41.0°F5.0°C 38.0°F3.3°C 89% 2.0 mph S3.2 kmh S 7.0 mph11.3 kmh 29.23 in989.8 mb 0.00 in0.0 mm 0.00 in0.0 mm 0.04 in1.0 mm
10:45 AM 40.9°F4.9°C 38.2°F3.4°C 90% 3.0 mph S4.8 kmh S 7.0 mph11.3 kmh 29.23 in989.8 mb 0.00 in0.0 mm 0.00 in0.0 mm 0.04 in1.0 mm
10:40 AM 40.8°F4.9°C 38.1°F3.4°C 90% 3.0 mph S4.8 kmh S 7.0 mph11.3 kmh 29.23 in989.8 mb 0.00 in0.0 mm 0.00 in0.0 mm 0.04 in1.0 mm
10:35 AM 40.7°F4.8°C 38.0°F3.3°C 90% 3.0 mph S4.8 kmh S 9.0 mph14.5 kmh 29.23 in989.8 mb 0.00 in0.0 mm 0.00 in0.0 mm 0.04 in1.0 mm
10:30 AM 40.7°F4.8°C 38.0°F3.3°C 90% 4.0 mph S6.4 kmh S 9.0 mph14.5 kmh 29.23 in989.8 mb 0.00 in0.0 mm 0.00 in0.0 mm 0.04 in1.0 mm
10:25 AM 40.7°F4.8°C 38.0°F3.3°C 90% 4.0 mph S6.4 kmh S 8.0 mph12.9 kmh 29.23 in989.8 mb 0.00 in0.0 mm 0.00 in0.0 mm 0.04 in1.0 mm
10:20 AM 40.8°F4.9°C 38.4°F3.6°C 91% 3.0 mph SSW4.8 kmh SSW 8.0 mph12.9 kmh 29.23 in989.8 mb 0.00 in0.0 mm 0.00 in0.0 mm 0.04 in1.0 mm
10:15 AM 40.9°F4.9°C 38.5°F3.6°C 91% 2.0 mph SSW3.2 kmh SSW 8.0 mph12.9 kmh 29.23 in989.8 mb 0.00 in0.0 mm 0.00 in0.0 mm 0.04 in1.0 mm
10:10 AM 41.1°F5.1°C 38.7°F3.7°C 91% 2.0 mph SSW3.2 kmh SSW 8.0 mph12.9 kmh 29.23 in989.8 mb 0.00 in0.0 mm 0.00 in0.0 mm 0.04 in1.0 mm
10:05 AM 40.9°F4.9°C 38.8°F3.8°C 92% 2.0 mph SSW3.2 kmh SSW 7.0 mph11.3 kmh 29.23 in989.8 mb 0.00 in0.0 mm 0.00 in0.0 mm 0.04 in1.0 mm
10:00 AM 40.8°F4.9°C 38.7°F3.7°C 92% 3.0 mph SSW4.8 kmh SSW 8.0 mph12.9 kmh 29.22 in989.5 mb 0.00 in0.0 mm 0.00 in0.0 mm 0.04 in1.0 mm
09:55 AM 40.7°F4.8°C 38.6°F3.7°C 92% 2.0 mph S3.2 kmh S 8.0 mph12.9 kmh 29.21 in989.2 mb 0.00 in0.0 mm 0.00 in0.0 mm 0.04 in1.0 mm
09:50 AM 40.7°F4.8°C 38.6°F3.7°C 92% 2.0 mph S3.2 kmh S 8.0 mph12.9 kmh 29.21 in989.2 mb 0.00 in0.0 mm 0.00 in0.0 mm 0.04 in1.0 mm
09:45 AM 40.6°F4.8°C 38.5°F3.6°C 92% 3.0 mph S4.8 kmh S 8.0 mph12.9 kmh 29.21 in989.2 mb 0.00 in0.0 mm 0.00 in0.0 mm 0.04 in1.0 mm
09:40 AM 40.5°F4.7°C 38.4°F3.6°C 92% 2.0 mph S3.2 kmh S 6.0 mph9.7 kmh 29.20 in988.8 mb 0.00 in0.0 mm 0.00 in0.0 mm 0.04 in1.0 mm
09:35 AM 40.4°F4.7°C 38.3°F3.5°C 92% 2.0 mph SSW3.2 kmh SSW 6.0 mph9.7 kmh 29.20 in988.8 mb 0.00 in0.0 mm 0.00 in0.0 mm 0.04 in1.0 mm
09:30 AM 40.5°F4.7°C 38.4°F3.6°C 92% 2.0 mph SSW3.2 kmh SSW 6.0 mph9.7 kmh 29.20 in988.8 mb 0.00 in0.0 mm 0.00 in0.0 mm 0.04 in1.0 mm
09:25 AM 40.6°F4.8°C 38.5°F3.6°C 92% 2.0 mph S3.2 kmh S 5.0 mph8.0 kmh 29.20 in988.8 mb 0.00 in0.0 mm 0.00 in0.0 mm 0.04 in1.0 mm
09:20 AM 40.7°F4.8°C 38.8°F3.8°C 93% 2.0 mph SSW3.2 kmh SSW 5.0 mph8.0 kmh 29.19 in988.5 mb 0.00 in0.0 mm 0.00 in0.0 mm 0.04 in1.0 mm
09:15 AM 40.6°F4.8°C 38.7°F3.7°C 93% 1.0 mph SSW1.6 kmh SSW 5.0 mph8.0 kmh 29.19 in988.5 mb 0.00 in0.0 mm 0.00 in0.0 mm 0.04 in1.0 mm
09:10 AM 40.4°F4.7°C 38.5°F3.6°C 93% 1.0 mph SSW1.6 kmh SSW 4.0 mph6.4 kmh 29.19 in988.5 mb 0.00 in0.0 mm 0.00 in0.0 mm 0.04 in1.0 mm
09:05 AM 40.3°F4.6°C 38.4°F3.6°C 93% 1.0 mph SSW1.6 kmh SSW 4.0 mph6.4 kmh 29.18 in988.1 mb 0.00 in0.0 mm 0.00 in0.0 mm 0.04 in1.0 mm
09:00 AM 40.1°F4.5°C 38.2°F3.4°C 93% 1.0 mph S1.6 kmh S 4.0 mph6.4 kmh 29.18 in988.1 mb 0.00 in0.0 mm 0.00 in0.0 mm 0.04 in1.0 mm
08:55 AM 39.9°F4.4°C 38.0°F3.3°C 93% 1.0 mph S1.6 kmh S 3.0 mph4.8 kmh 29.18 in988.1 mb 0.00 in0.0 mm 0.00 in0.0 mm 0.04 in1.0 mm
08:50 AM 39.7°F4.3°C 37.8°F3.2°C 93% 1.0 mph SSW1.6 kmh SSW 4.0 mph6.4 kmh 29.18 in988.1 mb 0.00 in0.0 mm 0.00 in0.0 mm 0.04 in1.0 mm
08:45 AM 39.5°F4.2°C 37.6°F3.1°C 93% 1.0 mph SSW1.6 kmh SSW 4.0 mph6.4 kmh 29.17 in987.8 mb 0.00 in0.0 mm 0.00 in0.0 mm 0.04 in1.0 mm
08:40 AM 39.2°F4.0°C 37.1°F2.8°C 92% 1.0 mph S1.6 kmh S 16.0 mph25.7 kmh 29.17 in987.8 mb 0.00 in0.0 mm 0.00 in0.0 mm 0.04 in1.0 mm
08:35 AM 39.2°F4.0°C 37.1°F2.8°C 92% 1.0 mph S1.6 kmh S 16.0 mph25.7 kmh 29.17 in987.8 mb 0.00 in0.0 mm 0.00 in0.0 mm 0.04 in1.0 mm
08:30 AM 37.5°F3.1°C 35.1°F1.7°C 91% 2.0 mph S3.2 kmh S 16.0 mph25.7 kmh 29.17 in987.8 mb 0.00 in0.0 mm 0.00 in0.0 mm 0.04 in1.0 mm
08:25 AM 37.4°F3.0°C 35.0°F1.7°C 91% 1.0 mph S1.6 kmh S 16.0 mph25.7 kmh 29.16 in987.5 mb 0.00 in0.0 mm 0.00 in0.0 mm 0.04 in1.0 mm
08:20 AM -1.0°F-18.3°C -3.0°F-19.4°C 91% 1.0 mph SSW1.6 kmh SSW 4.0 mph6.4 kmh 29.16 in987.5 mb 0.00 in0.0 mm 0.00 in0.0 mm 0.04 in1.0 mm
08:15 AM -1.0°F-18.3°C -3.0°F-19.4°C 91% 2.0 mph SW3.2 kmh SW 16.0 mph25.7 kmh 29.16 in987.5 mb 0.00 in0.0 mm 0.00 in0.0 mm 0.04 in1.0 mm
08:10 AM -1.0°F-18.3°C -3.2°F-19.6°C 90% 2.0 mph SSW3.2 kmh SSW 16.0 mph25.7 kmh 29.15 in987.1 mb 0.00 in0.0 mm 0.00 in0.0 mm 0.04 in1.0 mm
08:05 AM -1.0°F-18.3°C -3.2°F-19.6°C 90% 2.0 mph SSW3.2 kmh SSW 16.0 mph25.7 kmh 29.15 in987.1 mb 0.00 in0.0 mm 0.00 in0.0 mm 0.04 in1.0 mm
08:00 AM -1.0°F-18.3°C -3.5°F-19.7°C 89% 3.0 mph SSW4.8 kmh SSW 16.0 mph25.7 kmh 29.15 in987.1 mb 0.00 in0.0 mm 0.00 in0.0 mm 0.04 in1.0 mm
07:55 AM -1.0°F-18.3°C -3.5°F-19.7°C 89% 4.0 mph S6.4 kmh S 16.0 mph25.7 kmh 29.14 in986.8 mb 0.00 in0.0 mm 0.00 in0.0 mm 0.04 in1.0 mm
07:50 AM -1.0°F-18.3°C -3.5°F-19.7°C 89% 3.0 mph S4.8 kmh S 16.0 mph25.7 kmh 29.14 in986.8 mb 0.00 in0.0 mm 0.00 in0.0 mm 0.04 in1.0 mm
07:45 AM 38.6°F3.7°C 35.6°F2.0°C 89% 5.0 mph SSW8.0 kmh SSW 16.0 mph25.7 kmh 29.13 in986.5 mb 0.00 in0.0 mm 0.00 in0.0 mm 0.04 in1.0 mm
07:40 AM 38.6°F3.7°C 35.6°F2.0°C 89% 5.0 mph SW8.0 kmh SW 16.0 mph25.7 kmh 29.13 in986.5 mb 0.00 in0.0 mm 0.00 in0.0 mm 0.04 in1.0 mm
07:35 AM 38.6°F3.7°C 35.6°F2.0°C 89% 6.0 mph SW9.7 kmh SW 16.0 mph25.7 kmh 29.12 in986.1 mb 0.00 in0.0 mm 0.00 in0.0 mm 0.04 in1.0 mm
07:30 AM 38.6°F3.7°C 35.6°F2.0°C 89% 6.0 mph SW9.7 kmh SW 16.0 mph25.7 kmh 29.12 in986.1 mb 0.00 in0.0 mm 0.00 in0.0 mm 0.04 in1.0 mm
07:25 AM 38.6°F3.7°C 35.9°F2.2°C 90% 7.0 mph SSW11.3 kmh SSW 13.0 mph20.9 kmh 29.11 in985.8 mb 0.00 in0.0 mm 0.00 in0.0 mm 0.04 in1.0 mm
07:20 AM 38.6°F3.7°C 35.9°F2.2°C 90% 9.0 mph SSW14.5 kmh SSW 16.0 mph25.7 kmh 29.11 in985.8 mb 0.00 in0.0 mm 0.00 in0.0 mm 0.04 in1.0 mm
07:15 AM 38.6°F3.7°C 35.9°F2.2°C 90% 9.0 mph SSW14.5 kmh SSW 16.0 mph25.7 kmh 29.11 in985.8 mb 0.00 in0.0 mm 0.00 in0.0 mm 0.04 in1.0 mm
07:10 AM 38.6°F3.7°C 36.2°F2.3°C 91% 7.0 mph S11.3 kmh S 14.0 mph22.5 kmh 29.10 in985.4 mb 0.00 in0.0 mm 0.00 in0.0 mm 0.04 in1.0 mm
07:05 AM 38.6°F3.7°C 36.5°F2.5°C 92% 5.0 mph S8.0 kmh S 13.0 mph20.9 kmh 29.10 in985.4 mb 0.00 in0.0 mm 0.00 in0.0 mm 0.04 in1.0 mm
07:00 AM 38.6°F3.7°C 36.5°F2.5°C 92% 3.0 mph SSW4.8 kmh SSW 9.0 mph14.5 kmh 29.10 in985.4 mb 0.00 in0.0 mm 0.00 in0.0 mm 0.04 in1.0 mm
06:55 AM 38.6°F3.7°C 36.2°F2.3°C 91% 2.0 mph SW3.2 kmh SW 9.0 mph14.5 kmh 29.10 in985.4 mb 0.00 in0.0 mm 0.00 in0.0 mm 0.04 in1.0 mm
06:50 AM 38.6°F3.7°C 36.2°F2.3°C 91% 1.0 mph SW1.6 kmh SW 9.0 mph14.5 kmh 29.09 in985.1 mb 0.00 in0.0 mm 0.00 in0.0 mm 0.04 in1.0 mm
06:45 AM 38.6°F3.7°C 36.2°F2.3°C 91% 1.0 mph SW1.6 kmh SW 9.0 mph14.5 kmh 29.09 in985.1 mb 0.00 in0.0 mm 0.00 in0.0 mm 0.04 in1.0 mm
06:40 AM 34.5°F1.4°C 32.1°F0.1°C 91% 1.0 mph SSW1.6 kmh SSW 9.0 mph14.5 kmh 29.09 in985.1 mb 0.00 in0.0 mm 0.00 in0.0 mm 0.04 in1.0 mm
06:35 AM 34.5°F1.4°C 32.1°F0.1°C 91% 1.0 mph SE1.6 kmh SE 9.0 mph14.5 kmh 29.09 in985.1 mb 0.00 in0.0 mm 0.00 in0.0 mm 0.04 in1.0 mm
06:30 AM 34.5°F1.4°C 32.1°F0.1°C 91% 1.0 mph S1.6 kmh S 9.0 mph14.5 kmh 29.08 in984.8 mb 0.00 in0.0 mm 0.00 in0.0 mm 0.04 in1.0 mm
06:25 AM 34.5°F1.4°C 31.9°F-0.1°C 90% 2.0 mph SSW3.2 kmh SSW 4.0 mph6.4 kmh 29.08 in984.8 mb 0.00 in0.0 mm 0.00 in0.0 mm 0.04 in1.0 mm
06:20 AM 34.5°F1.4°C 32.1°F0.1°C 91% 3.0 mph SW4.8 kmh SW 9.0 mph14.5 kmh 29.07 in984.4 mb 0.00 in0.0 mm 0.00 in0.0 mm 0.04 in1.0 mm
06:15 AM 34.5°F1.4°C 32.1°F0.1°C 91% 4.0 mph SSW6.4 kmh SSW 9.0 mph14.5 kmh 29.07 in984.4 mb 0.00 in0.0 mm 0.00 in0.0 mm 0.04 in1.0 mm
06:10 AM 34.5°F1.4°C 32.1°F0.1°C 91% 4.0 mph S6.4 kmh S 9.0 mph14.5 kmh 29.06 in984.1 mb 0.00 in0.0 mm 0.00 in0.0 mm 0.04 in1.0 mm
06:05 AM 34.5°F1.4°C 32.4°F0.2°C 92% 5.0 mph S8.0 kmh S 9.0 mph14.5 kmh 29.06 in984.1 mb 0.00 in0.0 mm 0.00 in0.0 mm 0.04 in1.0 mm
06:00 AM 34.5°F1.4°C 32.4°F0.2°C 92% 5.0 mph SSW8.0 kmh SSW 9.0 mph14.5 kmh 29.05 in983.7 mb 0.00 in0.0 mm 0.00 in0.0 mm 0.04 in1.0 mm
05:55 AM 34.5°F1.4°C 32.7°F0.4°C 93% 4.0 mph SW6.4 kmh SW 9.0 mph14.5 kmh 29.05 in983.7 mb 0.00 in0.0 mm 0.00 in0.0 mm 0.04 in1.0 mm
05:50 AM 34.5°F1.4°C 32.7°F0.4°C 93% 4.0 mph SW6.4 kmh SW 9.0 mph14.5 kmh 29.05 in983.7 mb 0.00 in0.0 mm 0.00 in0.0 mm 0.04 in1.0 mm
05:45 AM 34.5°F1.4°C 32.7°F0.4°C 93% 2.0 mph SSW3.2 kmh SSW 9.0 mph14.5 kmh 29.04 in983.4 mb 0.00 in0.0 mm 0.00 in0.0 mm 0.04 in1.0 mm
05:40 AM 34.5°F1.4°C 32.7°F0.4°C 93% 2.0 mph SW3.2 kmh SW 9.0 mph14.5 kmh 29.04 in983.4 mb 0.00 in0.0 mm 0.00 in0.0 mm 0.04 in1.0 mm
05:35 AM 34.5°F1.4°C 32.7°F0.4°C 93% 4.0 mph S6.4 kmh S 9.0 mph14.5 kmh 29.03 in983.1 mb 0.00 in0.0 mm 0.00 in0.0 mm 0.04 in1.0 mm
05:30 AM 34.5°F1.4°C 33.0°F0.6°C 94% 5.0 mph S8.0 kmh S 9.0 mph14.5 kmh 29.03 in983.1 mb 0.00 in0.0 mm 0.00 in0.0 mm 0.04 in1.0 mm
05:25 AM 34.5°F1.4°C 33.0°F0.6°C 94% 5.0 mph S8.0 kmh S 8.0 mph12.9 kmh 29.03 in983.1 mb 0.00 in0.0 mm 0.00 in0.0 mm 0.04 in1.0 mm
05:20 AM 34.5°F1.4°C 33.0°F0.6°C 94% 4.0 mph SSW6.4 kmh SSW 8.0 mph12.9 kmh 29.02 in982.7 mb 0.00 in0.0 mm 0.00 in0.0 mm 0.04 in1.0 mm
05:15 AM 34.5°F1.4°C 33.2°F0.7°C 95% 3.0 mph SSW4.8 kmh SSW 8.0 mph12.9 kmh 29.02 in982.7 mb 0.00 in0.0 mm 0.00 in0.0 mm 0.04 in1.0 mm
05:10 AM 34.5°F1.4°C 33.2°F0.7°C 95% 2.0 mph SW3.2 kmh SW 6.0 mph9.7 kmh 29.02 in982.7 mb 0.00 in0.0 mm 0.00 in0.0 mm 0.04 in1.0 mm
05:05 AM 34.5°F1.4°C 33.2°F0.7°C 95% 3.0 mph SSW4.8 kmh SSW 5.0 mph8.0 kmh 29.02 in982.7 mb 0.00 in0.0 mm 0.00 in0.0 mm 0.04 in1.0 mm
05:00 AM 34.5°F1.4°C 33.0°F0.6°C 94% 2.0 mph SSW3.2 kmh SSW 5.0 mph8.0 kmh 29.02 in982.7 mb 0.00 in0.0 mm 0.00 in0.0 mm 0.04 in1.0 mm
04:55 AM 34.5°F1.4°C 33.0°F0.6°C 94% Calm Calm 5.0 mph8.0 kmh 29.02 in982.7 mb 0.00 in0.0 mm 0.00 in0.0 mm 0.04 in1.0 mm
04:50 AM 34.5°F1.4°C 33.0°F0.6°C 94% Calm Calm 5.0 mph8.0 kmh 29.01 in982.4 mb 0.00 in0.0 mm 0.00 in0.0 mm 0.04 in1.0 mm
04:45 AM 34.5°F1.4°C 33.0°F0.6°C 94% 1.0 mph SW1.6 kmh SW 5.0 mph8.0 kmh 29.01 in982.4 mb 0.00 in0.0 mm 0.00 in0.0 mm 0.04 in1.0 mm
04:40 AM 34.5°F1.4°C 33.0°F0.6°C 94% 2.0 mph SSW3.2 kmh SSW 5.0 mph8.0 kmh 29.00 in982.1 mb 0.00 in0.0 mm 0.00 in0.0 mm 0.04 in1.0 mm
04:35 AM 34.5°F1.4°C 33.0°F0.6°C 94% 1.0 mph S1.6 kmh S 5.0 mph8.0 kmh 29.00 in982.1 mb 0.00 in0.0 mm 0.00 in0.0 mm 0.04 in1.0 mm
04:30 AM 34.5°F1.4°C 33.0°F0.6°C 94% Calm Calm 5.0 mph8.0 kmh 29.00 in982.1 mb 0.00 in0.0 mm 0.00 in0.0 mm 0.04 in1.0 mm
04:25 AM 34.5°F1.4°C 33.0°F0.6°C 94% Calm Calm 5.0 mph8.0 kmh 29.00 in982.1 mb 0.00 in0.0 mm 0.00 in0.0 mm 0.04 in1.0 mm
04:20 AM 34.5°F1.4°C 33.0°F0.6°C 94% Calm Calm 5.0 mph8.0 kmh 29.00 in982.1 mb 0.00 in0.0 mm 0.00 in0.0 mm 0.04 in1.0 mm
04:15 AM 34.5°F1.4°C 33.0°F0.6°C 94% 1.0 mph SSW1.6 kmh SSW 5.0 mph8.0 kmh 28.99 in981.7 mb 0.00 in0.0 mm 0.00 in0.0 mm 0.04 in1.0 mm
04:10 AM 34.5°F1.4°C 33.0°F0.6°C 94% 1.0 mph SW1.6 kmh SW 5.0 mph8.0 kmh 28.99 in981.7 mb 0.00 in0.0 mm 0.00 in0.0 mm 0.04 in1.0 mm
04:05 AM 34.1°F1.2°C 32.6°F0.3°C 94% 1.0 mph SW1.6 kmh SW 5.0 mph8.0 kmh 28.99 in981.7 mb 0.00 in0.0 mm 0.00 in0.0 mm 0.04 in1.0 mm
04:00 AM 33.6°F0.9°C 32.1°F0.1°C 94% Calm Calm 5.0 mph8.0 kmh 28.99 in981.7 mb 0.00 in0.0 mm 0.00 in0.0 mm 0.04 in1.0 mm
03:55 AM 33.3°F0.7°C 31.8°F-0.1°C 94% Calm Calm 5.0 mph8.0 kmh 28.99 in981.7 mb 0.01 in0.3 mm 0.00 in0.0 mm 0.04 in1.0 mm
03:50 AM 33.5°F0.8°C 32.0°F0.0°C 94% Calm Calm 5.0 mph8.0 kmh 28.98 in981.4 mb 0.01 in0.3 mm 0.00 in0.0 mm 0.04 in1.0 mm
03:45 AM 33.5°F0.8°C 32.0°F0.0°C 94% Calm Calm 5.0 mph8.0 kmh 28.98 in981.4 mb 0.01 in0.3 mm 0.00 in0.0 mm 0.04 in1.0 mm
03:40 AM 32.9°F0.5°C 31.4°F-0.3°C 94% 1.0 mph SSW1.6 kmh SSW 5.0 mph8.0 kmh 28.98 in981.4 mb 0.01 in0.3 mm 0.00 in0.0 mm 0.04 in1.0 mm
03:35 AM 33.6°F0.9°C 32.1°F0.1°C 94% 1.0 mph SSW1.6 kmh SSW 5.0 mph8.0 kmh 28.98 in981.4 mb 0.01 in0.3 mm 0.00 in0.0 mm 0.04 in1.0 mm
03:30 AM 33.0°F0.6°C 31.2°F-0.4°C 93% 1.0 mph W1.6 kmh W 5.0 mph8.0 kmh 28.98 in981.4 mb 0.01 in0.3 mm 0.00 in0.0 mm 0.04 in1.0 mm
03:25 AM 33.0°F0.6°C 31.2°F-0.4°C 93% 1.0 mph W1.6 kmh W 5.0 mph8.0 kmh 28.97 in981.0 mb 0.01 in0.3 mm 0.00 in0.0 mm 0.04 in1.0 mm
03:20 AM 33.4°F0.8°C 31.6°F-0.2°C 93% 1.0 mph SW1.6 kmh SW 5.0 mph8.0 kmh 28.97 in981.0 mb 0.01 in0.3 mm 0.00 in0.0 mm 0.04 in1.0 mm
03:15 AM 33.1°F0.6°C 31.3°F-0.4°C 93% 2.0 mph SW3.2 kmh SW 5.0 mph8.0 kmh 28.97 in981.0 mb 0.01 in0.3 mm 0.00 in0.0 mm 0.04 in1.0 mm
03:10 AM 33.9°F1.1°C 32.1°F0.1°C 93% 1.0 mph SSW1.6 kmh SSW 4.0 mph6.4 kmh 28.97 in981.0 mb 0.01 in0.3 mm 0.00 in0.0 mm 0.04 in1.0 mm
03:05 AM 33.3°F0.7°C 31.5°F-0.3°C 93% 1.0 mph SW1.6 kmh SW 4.0 mph6.4 kmh 28.96 in980.7 mb 0.01 in0.3 mm 0.00 in0.0 mm 0.04 in1.0 mm
03:00 AM 34.1°F1.2°C 32.3°F0.2°C 93% 1.0 mph SSW1.6 kmh SSW 3.0 mph4.8 kmh 28.96 in980.7 mb 0.01 in0.3 mm 0.01 in0.3 mm 0.04 in1.0 mm
02:55 AM 34.3°F1.3°C 32.5°F0.3°C 93% 1.0 mph SSW1.6 kmh SSW 4.0 mph6.4 kmh 28.96 in980.7 mb 0.00 in0.0 mm 0.00 in0.0 mm 0.03 in0.8 mm
02:50 AM 33.5°F0.8°C 31.7°F-0.2°C 93% 1.0 mph SW1.6 kmh SW 4.0 mph6.4 kmh 28.96 in980.7 mb 0.00 in0.0 mm 0.00 in0.0 mm 0.03 in0.8 mm
02:45 AM 33.7°F0.9°C 31.9°F-0.1°C 93% 1.0 mph SSW1.6 kmh SSW 4.0 mph6.4 kmh 28.95 in980.4 mb 0.00 in0.0 mm 0.00 in0.0 mm 0.03 in0.8 mm
02:40 AM 35.1°F1.7°C 33.3°F0.7°C 93% 1.0 mph SW1.6 kmh SW 4.0 mph6.4 kmh 28.95 in980.4 mb 0.00 in0.0 mm 0.00 in0.0 mm 0.03 in0.8 mm
02:35 AM 35.1°F1.7°C 33.3°F0.7°C 93% 1.0 mph SW1.6 kmh SW 6.0 mph9.7 kmh 28.95 in980.4 mb 0.00 in0.0 mm 0.00 in0.0 mm 0.03 in0.8 mm
02:30 AM 35.2°F1.8°C 33.4°F0.8°C 93% 2.0 mph SSW3.2 kmh SSW 6.0 mph9.7 kmh 28.94 in980.0 mb 0.00 in0.0 mm 0.00 in0.0 mm 0.03 in0.8 mm
02:25 AM 35.4°F1.9°C 33.6°F0.9°C 93% 2.0 mph SSW3.2 kmh SSW 5.0 mph8.0 kmh 28.94 in980.0 mb 0.00 in0.0 mm 0.00 in0.0 mm 0.03 in0.8 mm
02:20 AM 35.5°F1.9°C 33.7°F0.9°C 93% 1.0 mph SSW1.6 kmh SSW 5.0 mph8.0 kmh 28.94 in980.0 mb 0.00 in0.0 mm 0.00 in0.0 mm 0.03 in0.8 mm
02:15 AM 35.5°F1.9°C 33.7°F0.9°C 93% 1.0 mph SSW1.6 kmh SSW 5.0 mph8.0 kmh 28.94 in980.0 mb 0.00 in0.0 mm 0.00 in0.0 mm 0.03 in0.8 mm
02:10 AM 35.5°F1.9°C 33.7°F0.9°C 93% Calm Calm 2.0 mph3.2 kmh 28.93 in979.7 mb 0.00 in0.0 mm 0.00 in0.0 mm 0.03 in0.8 mm
02:05 AM 35.5°F1.9°C 33.7°F0.9°C 93% 1.0 mph SSW1.6 kmh SSW 2.0 mph3.2 kmh 28.93 in979.7 mb 0.00 in0.0 mm 0.00 in0.0 mm 0.03 in0.8 mm
02:00 AM 35.6°F2.0°C 33.8°F1.0°C 93% Calm Calm 2.0 mph3.2 kmh 28.93 in979.7 mb 0.01 in0.3 mm 0.00 in0.0 mm 0.03 in0.8 mm
01:55 AM 35.6°F2.0°C 33.8°F1.0°C 93% Calm Calm 1.0 mph1.6 kmh 28.93 in979.7 mb 0.01 in0.3 mm 0.00 in0.0 mm 0.03 in0.8 mm
01:50 AM 35.7°F2.1°C 33.9°F1.1°C 93% Calm Calm 1.0 mph1.6 kmh 28.92 in979.3 mb 0.01 in0.3 mm 0.00 in0.0 mm 0.03 in0.8 mm
01:45 AM 35.7°F2.1°C 33.9°F1.1°C 93% Calm Calm -- 28.92 in979.3 mb 0.02 in0.5 mm 0.00 in0.0 mm 0.03 in0.8 mm
01:40 AM 35.6°F2.0°C 33.8°F1.0°C 93% Calm Calm -- 28.92 in979.3 mb 0.02 in0.5 mm 0.00 in0.0 mm 0.03 in0.8 mm
01:35 AM 35.7°F2.1°C 33.9°F1.1°C 93% Calm Calm -- 28.91 in979.0 mb 0.03 in0.8 mm 0.00 in0.0 mm 0.03 in0.8 mm
01:30 AM 35.8°F2.1°C 33.7°F0.9°C 92% Calm Calm -- 28.91 in979.0 mb 0.03 in0.8 mm 0.00 in0.0 mm 0.03 in0.8 mm
01:25 AM 35.8°F2.1°C 33.7°F0.9°C 92% Calm Calm -- 28.91 in979.0 mb 0.03 in0.8 mm 0.00 in0.0 mm 0.03 in0.8 mm
01:20 AM 35.8°F2.1°C 33.7°F0.9°C 92% Calm Calm -- 28.91 in979.0 mb 0.03 in0.8 mm 0.00 in0.0 mm 0.03 in0.8 mm
01:15 AM 35.8°F2.1°C 33.7°F0.9°C 92% Calm Calm 1.0 mph1.6 kmh 28.91 in979.0 mb 0.03 in0.8 mm 0.00 in0.0 mm 0.03 in0.8 mm
01:10 AM 35.9°F2.2°C 33.8°F1.0°C 92% Calm Calm 1.0 mph1.6 kmh 28.90 in978.7 mb 0.03 in0.8 mm 0.00 in0.0 mm 0.03 in0.8 mm
01:05 AM 35.9°F2.2°C 33.8°F1.0°C 92% Calm Calm 3.0 mph4.8 kmh 28.90 in978.7 mb 0.03 in0.8 mm 0.12 in3.0 mm 0.03 in0.8 mm
01:00 AM 35.9°F2.2°C 33.8°F1.0°C 92% Calm Calm 3.0 mph4.8 kmh 28.90 in978.7 mb 0.02 in0.5 mm 0.00 in0.0 mm 0.02 in0.5 mm
12:55 AM 35.9°F2.2°C 33.8°F1.0°C 92% Calm Calm 3.0 mph4.8 kmh 28.90 in978.7 mb 0.02 in0.5 mm 0.00 in0.0 mm 0.02 in0.5 mm
12:50 AM 36.0°F2.2°C 33.9°F1.1°C 92% Calm Calm 4.0 mph6.4 kmh 28.90 in978.7 mb 0.02 in0.5 mm 0.00 in0.0 mm 0.02 in0.5 mm
12:45 AM 36.2°F2.3°C 34.1°F1.2°C 92% Calm Calm 4.0 mph6.4 kmh 28.90 in978.7 mb 0.02 in0.5 mm 0.12 in3.0 mm 0.02 in0.5 mm
12:40 AM 36.2°F2.3°C 34.1°F1.2°C 92% 1.0 mph NNE1.6 kmh NNE 6.0 mph9.7 kmh 28.90 in978.7 mb 0.01 in0.3 mm 0.12 in3.0 mm 0.01 in0.3 mm
12:35 AM 36.3°F2.4°C 33.9°F1.1°C 91% 1.0 mph NNE1.6 kmh NNE 6.0 mph9.7 kmh 28.90 in978.7 mb 0.00 in0.0 mm 0.00 in0.0 mm 0.00 in0.0 mm
12:30 AM 36.4°F2.4°C 34.0°F1.1°C 91% 1.0 mph NNE1.6 kmh NNE 11.0 mph17.7 kmh 28.90 in978.7 mb 0.00 in0.0 mm 0.00 in0.0 mm 0.00 in0.0 mm
12:25 AM 35.1°F1.7°C 32.7°F0.4°C 91% 1.0 mph NE1.6 kmh NE 11.0 mph17.7 kmh 28.90 in978.7 mb 0.00 in0.0 mm 0.00 in0.0 mm 0.00 in0.0 mm
12:20 AM 35.1°F1.7°C 32.5°F0.3°C 90% 2.0 mph ENE3.2 kmh ENE 11.0 mph17.7 kmh 28.90 in978.7 mb 0.00 in0.0 mm 0.00 in0.0 mm 0.00 in0.0 mm
12:15 AM 35.2°F1.8°C 32.6°F0.3°C 90% 2.0 mph N3.2 kmh N 11.0 mph17.7 kmh 28.89 in978.3 mb 0.00 in0.0 mm 0.00 in0.0 mm 0.00 in0.0 mm
12:10 AM 35.1°F1.7°C 32.5°F0.3°C 90% 3.0 mph NNE4.8 kmh NNE 11.0 mph17.7 kmh 28.89 in978.3 mb 0.00 in0.0 mm 0.00 in0.0 mm 0.00 in0.0 mm
12:05 AM 35.1°F1.7°C 32.5°F0.3°C 90% 3.0 mph NE4.8 kmh NE 11.0 mph17.7 kmh 28.89 in978.3 mb 0.00 in0.0 mm 0.00 in0.0 mm 0.00 in0.0 mm
12:00 AM 34.9°F1.6°C 32.3°F0.2°C 90% 3.0 mph NNE4.8 kmh NNE 11.0 mph17.7 kmh 28.89 in978.3 mb 0.00 in0.0 mm 0.00 in0.0 mm 0.00 in0.0 mm